sensor_id;sensor_type;location;lat;lon;timestamp;pressure;altitude;pressure_sealevel;temperature
25514;BMP180;48128;54.242;10.280;2022-11-06T00:02:10;100981.00;;;8.40
25514;BMP180;48128;54.242;10.280;2022-11-06T00:04:43;100978.00;;;8.50
25514;BMP180;48128;54.242;10.280;2022-11-06T00:07:09;100973.00;;;8.50
25514;BMP180;48128;54.242;10.280;2022-11-06T00:09:36;100978.00;;;8.50
25514;BMP180;48128;54.242;10.280;2022-11-06T00:12:03;100985.00;;;8.50
25514;BMP180;48128;54.242;10.280;2022-11-06T00:14:30;100972.00;;;8.50
25514;BMP180;48128;54.242;10.280;2022-11-06T00:16:56;100970.00;;;8.50
25514;BMP180;48128;54.242;10.280;2022-11-06T00:19:23;100978.00;;;8.60
25514;BMP180;48128;54.242;10.280;2022-11-06T00:21:50;100974.00;;;8.60
25514;BMP180;48128;54.242;10.280;2022-11-06T00:24:17;100957.00;;;8.60
25514;BMP180;48128;54.242;10.280;2022-11-06T00:26:44;100970.00;;;8.60
25514;BMP180;48128;54.242;10.280;2022-11-06T00:29:16;100971.00;;;8.60
25514;BMP180;48128;54.242;10.280;2022-11-06T00:31:43;100968.00;;;8.60
25514;BMP180;48128;54.242;10.280;2022-11-06T00:34:10;100959.00;;;8.60
25514;BMP180;48128;54.242;10.280;2022-11-06T00:36:45;100948.00;;;8.60
25514;BMP180;48128;54.242;10.280;2022-11-06T00:39:12;100953.00;;;8.60
25514;BMP180;48128;54.242;10.280;2022-11-06T00:41:38;100959.00;;;8.70
25514;BMP180;48128;54.242;10.280;2022-11-06T00:44:05;100943.00;;;8.60
25514;BMP180;48128;54.242;10.280;2022-11-06T00:46:32;100966.00;;;8.70
25514;BMP180;48128;54.242;10.280;2022-11-06T00:48:59;100945.00;;;8.70
25514;BMP180;48128;54.242;10.280;2022-11-06T00:51:36;100948.00;;;8.70
25514;BMP180;48128;54.242;10.280;2022-11-06T00:54:06;100944.00;;;8.70
25514;BMP180;48128;54.242;10.280;2022-11-06T00:56:33;100941.00;;;8.70
25514;BMP180;48128;54.242;10.280;2022-11-06T00:59:02;100951.00;;;8.70
25514;BMP180;48128;54.242;10.280;2022-11-06T01:01:35;100941.00;;;8.70
25514;BMP180;48128;54.242;10.280;2022-11-06T01:04:13;100936.00;;;8.70
25514;BMP180;48128;54.242;10.280;2022-11-06T01:06:45;100926.00;;;8.70
25514;BMP180;48128;54.242;10.280;2022-11-06T01:09:17;100921.00;;;8.70
25514;BMP180;48128;54.242;10.280;2022-11-06T01:11:46;100919.00;;;8.70
25514;BMP180;48128;54.242;10.280;2022-11-06T01:14:33;100926.00;;;8.70
25514;BMP180;48128;54.242;10.280;2022-11-06T01:17:00;100907.00;;;8.60
25514;BMP180;48128;54.242;10.280;2022-11-06T01:19:27;100901.00;;;8.60
25514;BMP180;48128;54.242;10.280;2022-11-06T01:21:54;100907.00;;;8.60
25514;BMP180;48128;54.242;10.280;2022-11-06T01:24:25;100908.00;;;8.60
25514;BMP180;48128;54.242;10.280;2022-11-06T01:26:53;100898.00;;;8.60
25514;BMP180;48128;54.242;10.280;2022-11-06T01:29:40;100890.00;;;8.60
25514;BMP180;48128;54.242;10.280;2022-11-06T01:32:07;100884.00;;;8.60
25514;BMP180;48128;54.242;10.280;2022-11-06T01:34:33;100882.00;;;8.60
25514;BMP180;48128;54.242;10.280;2022-11-06T01:37:00;100881.00;;;8.60
25514;BMP180;48128;54.242;10.280;2022-11-06T01:39:27;100878.00;;;8.60
25514;BMP180;48128;54.242;10.280;2022-11-06T01:41:54;100870.00;;;8.60
25514;BMP180;48128;54.242;10.280;2022-11-06T01:47:35;100861.00;;;8.50
25514;BMP180;48128;54.242;10.280;2022-11-06T01:50:06;100839.00;;;8.50
25514;BMP180;48128;54.242;10.280;2022-11-06T01:52:33;100837.00;;;8.50
25514;BMP180;48128;54.242;10.280;2022-11-06T01:55:08;100849.00;;;8.50
25514;BMP180;48128;54.242;10.280;2022-11-06T01:57:36;100839.00;;;8.50
25514;BMP180;48128;54.242;10.280;2022-11-06T02:00:04;100849.00;;;8.50
25514;BMP180;48128;54.242;10.280;2022-11-06T02:02:32;100852.00;;;8.50
25514;BMP180;48128;54.242;10.280;2022-11-06T02:04:59;100845.00;;;8.50
25514;BMP180;48128;54.242;10.280;2022-11-06T02:07:26;100827.00;;;8.50
25514;BMP180;48128;54.242;10.280;2022-11-06T02:09:52;100834.00;;;8.50
25514;BMP180;48128;54.242;10.280;2022-11-06T02:12:27;100844.00;;;8.50
25514;BMP180;48128;54.242;10.280;2022-11-06T02:17:40;100830.00;;;8.50
25514;BMP180;48128;54.242;10.280;2022-11-06T02:28:34;100812.00;;;8.50
25514;BMP180;48128;54.242;10.280;2022-11-06T02:31:06;100806.00;;;8.50
25514;BMP180;48128;54.242;10.280;2022-11-06T02:33:37;100802.00;;;8.50
25514;BMP180;48128;54.242;10.280;2022-11-06T02:36:09;100809.00;;;8.50
25514;BMP180;48128;54.242;10.280;2022-11-06T02:38:40;100798.00;;;8.50
25514;BMP180;48128;54.242;10.280;2022-11-06T02:41:12;100803.00;;;8.50
25514;BMP180;48128;54.242;10.280;2022-11-06T02:43:45;100807.00;;;8.50
25514;BMP180;48128;54.242;10.280;2022-11-06T02:46:18;100807.00;;;8.50
25514;BMP180;48128;54.242;10.280;2022-11-06T02:48:48;100803.00;;;8.60
25514;BMP180;48128;54.242;10.280;2022-11-06T02:51:19;100813.00;;;8.60
25514;BMP180;48128;54.242;10.280;2022-11-06T02:53:47;100797.00;;;8.60
25514;BMP180;48128;54.242;10.280;2022-11-06T02:56:17;100785.00;;;8.60
25514;BMP180;48128;54.242;10.280;2022-11-06T02:58:51;100789.00;;;8.50
25514;BMP180;48128;54.242;10.280;2022-11-06T03:01:25;100804.00;;;8.50
25514;BMP180;48128;54.242;10.280;2022-11-06T03:03:58;100802.00;;;8.50
25514;BMP180;48128;54.242;10.280;2022-11-06T03:06:42;100791.00;;;8.60
25514;BMP180;48128;54.242;10.280;2022-11-06T03:09:17;100791.00;;;8.60
25514;BMP180;48128;54.242;10.280;2022-11-06T03:11:44;100802.00;;;8.60
25514;BMP180;48128;54.242;10.280;2022-11-06T03:17:45;100797.00;;;8.60
25514;BMP180;48128;54.242;10.280;2022-11-06T03:20:22;100788.00;;;8.60
25514;BMP180;48128;54.242;10.280;2022-11-06T03:22:56;100794.00;;;8.60
25514;BMP180;48128;54.242;10.280;2022-11-06T03:25:28;100775.00;;;8.70
25514;BMP180;48128;54.242;10.280;2022-11-06T03:28:03;100769.00;;;8.70
25514;BMP180;48128;54.242;10.280;2022-11-06T03:30:35;100767.00;;;8.70
25514;BMP180;48128;54.242;10.280;2022-11-06T03:36:17;100746.00;;;8.60
25514;BMP180;48128;54.242;10.280;2022-11-06T03:38:50;100741.00;;;8.60
25514;BMP180;48128;54.242;10.280;2022-11-06T03:41:25;100751.00;;;8.60
25514;BMP180;48128;54.242;10.280;2022-11-06T03:43:53;100739.00;;;8.60
25514;BMP180;48128;54.242;10.280;2022-11-06T03:46:21;100733.00;;;8.50
25514;BMP180;48128;54.242;10.280;2022-11-06T03:49:07;100736.00;;;8.50
25514;BMP180;48128;54.242;10.280;2022-11-06T03:51:40;100738.00;;;8.50
25514;BMP180;48128;54.242;10.280;2022-11-06T03:54:22;100734.00;;;8.50
25514;BMP180;48128;54.242;10.280;2022-11-06T03:56:55;100729.00;;;8.50
25514;BMP180;48128;54.242;10.280;2022-11-06T03:59:26;100732.00;;;8.50
25514;BMP180;48128;54.242;10.280;2022-11-06T04:01:54;100746.00;;;8.50
25514;BMP180;48128;54.242;10.280;2022-11-06T04:04:32;100742.00;;;8.50
25514;BMP180;48128;54.242;10.280;2022-11-06T04:07:04;100741.00;;;8.60
25514;BMP180;48128;54.242;10.280;2022-11-06T04:09:32;100738.00;;;8.60
25514;BMP180;48128;54.242;10.280;2022-11-06T04:12:21;100740.00;;;8.60
25514;BMP180;48128;54.242;10.280;2022-11-06T04:15:09;100744.00;;;8.60
25514;BMP180;48128;54.242;10.280;2022-11-06T04:17:38;100739.00;;;8.70
25514;BMP180;48128;54.242;10.280;2022-11-06T04:20:08;100739.00;;;8.70
25514;BMP180;48128;54.242;10.280;2022-11-06T04:22:58;100728.00;;;8.70
25514;BMP180;48128;54.242;10.280;2022-11-06T04:28:42;100721.00;;;8.70
25514;BMP180;48128;54.242;10.280;2022-11-06T04:31:25;100733.00;;;8.70
25514;BMP180;48128;54.242;10.280;2022-11-06T04:36:46;100731.00;;;8.70
25514;BMP180;48128;54.242;10.280;2022-11-06T04:39:23;100725.00;;;8.70
25514;BMP180;48128;54.242;10.280;2022-11-06T04:42:12;100719.00;;;8.70
25514;BMP180;48128;54.242;10.280;2022-11-06T04:44:49;100711.00;;;8.70
25514;BMP180;48128;54.242;10.280;2022-11-06T04:47:19;100712.00;;;8.70
25514;BMP180;48128;54.242;10.280;2022-11-06T04:49:49;100707.00;;;8.60
25514;BMP180;48128;54.242;10.280;2022-11-06T04:52:19;100725.00;;;8.60
25514;BMP180;48128;54.242;10.280;2022-11-06T04:54:47;100707.00;;;8.50
25514;BMP180;48128;54.242;10.280;2022-11-06T04:57:14;100719.00;;;8.50
25514;BMP180;48128;54.242;10.280;2022-11-06T04:59:41;100720.00;;;8.50
25514;BMP180;48128;54.242;10.280;2022-11-06T05:02:08;100715.00;;;8.40
25514;BMP180;48128;54.242;10.280;2022-11-06T05:04:35;100720.00;;;8.40
25514;BMP180;48128;54.242;10.280;2022-11-06T05:07:02;100710.00;;;8.40
25514;BMP180;48128;54.242;10.280;2022-11-06T05:09:29;100722.00;;;8.40
25514;BMP180;48128;54.242;10.280;2022-11-06T05:11:56;100720.00;;;8.40
25514;BMP180;48128;54.242;10.280;2022-11-06T05:14:23;100724.00;;;8.40
25514;BMP180;48128;54.242;10.280;2022-11-06T05:16:50;100715.00;;;8.30
25514;BMP180;48128;54.242;10.280;2022-11-06T05:19:16;100717.00;;;8.30
25514;BMP180;48128;54.242;10.280;2022-11-06T05:21:43;100719.00;;;8.30
25514;BMP180;48128;54.242;10.280;2022-11-06T05:24:29;100728.00;;;8.30
25514;BMP180;48128;54.242;10.280;2022-11-06T05:26:56;100738.00;;;8.30
25514;BMP180;48128;54.242;10.280;2022-11-06T05:29:25;100727.00;;;8.30
25514;BMP180;48128;54.242;10.280;2022-11-06T05:31:52;100726.00;;;8.20
25514;BMP180;48128;54.242;10.280;2022-11-06T05:34:20;100725.00;;;8.20
25514;BMP180;48128;54.242;10.280;2022-11-06T05:36:47;100738.00;;;8.20
25514;BMP180;48128;54.242;10.280;2022-11-06T05:39:13;100735.00;;;8.20
25514;BMP180;48128;54.242;10.280;2022-11-06T05:41:40;100735.00;;;8.20
25514;BMP180;48128;54.242;10.280;2022-11-06T05:44:07;100736.00;;;8.20
25514;BMP180;48128;54.242;10.280;2022-11-06T05:46:34;100737.00;;;8.20
25514;BMP180;48128;54.242;10.280;2022-11-06T05:49:15;100734.00;;;8.20
25514;BMP180;48128;54.242;10.280;2022-11-06T05:51:42;100730.00;;;8.20
25514;BMP180;48128;54.242;10.280;2022-11-06T05:54:09;100731.00;;;8.20
25514;BMP180;48128;54.242;10.280;2022-11-06T05:56:36;100732.00;;;8.20
25514;BMP180;48128;54.242;10.280;2022-11-06T05:59:02;100737.00;;;8.20
25514;BMP180;48128;54.242;10.280;2022-11-06T06:01:29;100743.00;;;8.20
25514;BMP180;48128;54.242;10.280;2022-11-06T06:03:57;100742.00;;;8.20
25514;BMP180;48128;54.242;10.280;2022-11-06T06:06:23;100748.00;;;8.20
25514;BMP180;48128;54.242;10.280;2022-11-06T06:08:50;100748.00;;;8.10
25514;BMP180;48128;54.242;10.280;2022-11-06T06:11:17;100743.00;;;8.20
25514;BMP180;48128;54.242;10.280;2022-11-06T06:13:44;100747.00;;;8.20
25514;BMP180;48128;54.242;10.280;2022-11-06T06:16:11;100741.00;;;8.10
25514;BMP180;48128;54.242;10.280;2022-11-06T06:18:38;100746.00;;;8.10
25514;BMP180;48128;54.242;10.280;2022-11-06T06:21:05;100744.00;;;8.10
25514;BMP180;48128;54.242;10.280;2022-11-06T06:23:31;100742.00;;;8.10
25514;BMP180;48128;54.242;10.280;2022-11-06T06:25:58;100745.00;;;8.10
25514;BMP180;48128;54.242;10.280;2022-11-06T06:28:25;100749.00;;;8.20
25514;BMP180;48128;54.242;10.280;2022-11-06T06:30:52;100738.00;;;8.10
25514;BMP180;48128;54.242;10.280;2022-11-06T06:33:26;100745.00;;;8.10
25514;BMP180;48128;54.242;10.280;2022-11-06T06:35:53;100750.00;;;8.10
25514;BMP180;48128;54.242;10.280;2022-11-06T06:38:20;100757.00;;;8.20
25514;BMP180;48128;54.242;10.280;2022-11-06T06:40:47;100763.00;;;8.10
25514;BMP180;48128;54.242;10.280;2022-11-06T06:43:13;100749.00;;;8.10
25514;BMP180;48128;54.242;10.280;2022-11-06T06:45:40;100757.00;;;8.20
25514;BMP180;48128;54.242;10.280;2022-11-06T06:48:07;100749.00;;;8.20
25514;BMP180;48128;54.242;10.280;2022-11-06T06:50:34;100754.00;;;8.20
25514;BMP180;48128;54.242;10.280;2022-11-06T06:53:01;100755.00;;;8.20
25514;BMP180;48128;54.242;10.280;2022-11-06T06:55:28;100764.00;;;8.20
25514;BMP180;48128;54.242;10.280;2022-11-06T06:57:56;100765.00;;;8.20
25514;BMP180;48128;54.242;10.280;2022-11-06T07:00:24;100762.00;;;8.20
25514;BMP180;48128;54.242;10.280;2022-11-06T07:02:51;100761.00;;;8.20
25514;BMP180;48128;54.242;10.280;2022-11-06T07:05:18;100767.00;;;8.20
25514;BMP180;48128;54.242;10.280;2022-11-06T07:07:45;100766.00;;;8.20
25514;BMP180;48128;54.242;10.280;2022-11-06T07:10:12;100769.00;;;8.20
25514;BMP180;48128;54.242;10.280;2022-11-06T07:12:39;100762.00;;;8.20
25514;BMP180;48128;54.242;10.280;2022-11-06T07:15:07;100759.00;;;8.20
25514;BMP180;48128;54.242;10.280;2022-11-06T07:17:34;100767.00;;;8.20
25514;BMP180;48128;54.242;10.280;2022-11-06T07:20:00;100757.00;;;8.30
25514;BMP180;48128;54.242;10.280;2022-11-06T07:22:28;100762.00;;;8.30
25514;BMP180;48128;54.242;10.280;2022-11-06T07:25:02;100756.00;;;8.30
25514;BMP180;48128;54.242;10.280;2022-11-06T07:27:30;100756.00;;;8.30
25514;BMP180;48128;54.242;10.280;2022-11-06T07:29:56;100760.00;;;8.40
25514;BMP180;48128;54.242;10.280;2022-11-06T07:32:26;100772.00;;;8.40
25514;BMP180;48128;54.242;10.280;2022-11-06T07:34:53;100759.00;;;8.40
25514;BMP180;48128;54.242;10.280;2022-11-06T07:37:19;100765.00;;;8.40
25514;BMP180;48128;54.242;10.280;2022-11-06T07:39:46;100767.00;;;8.40
25514;BMP180;48128;54.242;10.280;2022-11-06T07:42:13;100767.00;;;8.40
25514;BMP180;48128;54.242;10.280;2022-11-06T07:44:40;100767.00;;;8.40
25514;BMP180;48128;54.242;10.280;2022-11-06T07:47:07;100749.00;;;8.40
25514;BMP180;48128;54.242;10.280;2022-11-06T07:49:33;100767.00;;;8.40
25514;BMP180;48128;54.242;10.280;2022-11-06T07:52:00;100763.00;;;8.40
25514;BMP180;48128;54.242;10.280;2022-11-06T07:54:27;100762.00;;;8.40
25514;BMP180;48128;54.242;10.280;2022-11-06T07:56:54;100754.00;;;8.40
25514;BMP180;48128;54.242;10.280;2022-11-06T07:59:20;100750.00;;;8.40
25514;BMP180;48128;54.242;10.280;2022-11-06T08:01:47;100763.00;;;8.40
25514;BMP180;48128;54.242;10.280;2022-11-06T08:04:14;100762.00;;;8.40
25514;BMP180;48128;54.242;10.280;2022-11-06T08:06:41;100760.00;;;8.40
25514;BMP180;48128;54.242;10.280;2022-11-06T08:09:08;100766.00;;;8.40
25514;BMP180;48128;54.242;10.280;2022-11-06T08:11:35;100759.00;;;8.50
25514;BMP180;48128;54.242;10.280;2022-11-06T08:14:01;100759.00;;;8.50
25514;BMP180;48128;54.242;10.280;2022-11-06T08:16:28;100760.00;;;8.50
25514;BMP180;48128;54.242;10.280;2022-11-06T08:18:56;100758.00;;;8.50
25514;BMP180;48128;54.242;10.280;2022-11-06T08:21:23;100759.00;;;8.50
25514;BMP180;48128;54.242;10.280;2022-11-06T08:23:50;100747.00;;;8.50
25514;BMP180;48128;54.242;10.280;2022-11-06T08:26:17;100754.00;;;8.50
25514;BMP180;48128;54.242;10.280;2022-11-06T08:28:43;100757.00;;;8.50
25514;BMP180;48128;54.242;10.280;2022-11-06T08:31:10;100752.00;;;8.50
25514;BMP180;48128;54.242;10.280;2022-11-06T08:33:38;100746.00;;;8.50
25514;BMP180;48128;54.242;10.280;2022-11-06T08:36:06;100746.00;;;8.50
25514;BMP180;48128;54.242;10.280;2022-11-06T08:38:34;100745.00;;;8.50
25514;BMP180;48128;54.242;10.280;2022-11-06T08:41:05;100743.00;;;8.50
25514;BMP180;48128;54.242;10.280;2022-11-06T08:43:33;100750.00;;;8.60
25514;BMP180;48128;54.242;10.280;2022-11-06T08:46:00;100748.00;;;8.50
25514;BMP180;48128;54.242;10.280;2022-11-06T08:48:27;100745.00;;;8.50
25514;BMP180;48128;54.242;10.280;2022-11-06T08:50:53;100740.00;;;8.50
25514;BMP180;48128;54.242;10.280;2022-11-06T08:53:20;100746.00;;;8.50
25514;BMP180;48128;54.242;10.280;2022-11-06T08:55:48;100736.00;;;8.50
25514;BMP180;48128;54.242;10.280;2022-11-06T08:58:15;100744.00;;;8.60
25514;BMP180;48128;54.242;10.280;2022-11-06T09:00:42;100727.00;;;8.60
25514;BMP180;48128;54.242;10.280;2022-11-06T09:03:11;100733.00;;;8.60
25514;BMP180;48128;54.242;10.280;2022-11-06T09:05:40;100733.00;;;8.60
25514;BMP180;48128;54.242;10.280;2022-11-06T09:08:08;100735.00;;;8.60
25514;BMP180;48128;54.242;10.280;2022-11-06T09:10:36;100738.00;;;8.60
25514;BMP180;48128;54.242;10.280;2022-11-06T09:13:03;100722.00;;;8.60
25514;BMP180;48128;54.242;10.280;2022-11-06T09:15:30;100732.00;;;8.60
25514;BMP180;48128;54.242;10.280;2022-11-06T09:17:57;100730.00;;;8.60
25514;BMP180;48128;54.242;10.280;2022-11-06T09:20:25;100722.00;;;8.60
25514;BMP180;48128;54.242;10.280;2022-11-06T09:22:52;100732.00;;;8.60
25514;BMP180;48128;54.242;10.280;2022-11-06T09:25:20;100717.00;;;8.70
25514;BMP180;48128;54.242;10.280;2022-11-06T09:27:49;100719.00;;;8.70
25514;BMP180;48128;54.242;10.280;2022-11-06T09:30:25;100723.00;;;8.80
25514;BMP180;48128;54.242;10.280;2022-11-06T09:32:54;100730.00;;;8.80
25514;BMP180;48128;54.242;10.280;2022-11-06T09:35:22;100727.00;;;8.80
25514;BMP180;48128;54.242;10.280;2022-11-06T09:37:50;100732.00;;;8.80
25514;BMP180;48128;54.242;10.280;2022-11-06T09:40:26;100724.00;;;8.80
25514;BMP180;48128;54.242;10.280;2022-11-06T09:43:03;100736.00;;;8.80
25514;BMP180;48128;54.242;10.280;2022-11-06T09:45:31;100730.00;;;8.80
25514;BMP180;48128;54.242;10.280;2022-11-06T09:48:05;100728.00;;;8.80
25514;BMP180;48128;54.242;10.280;2022-11-06T09:50:43;100723.00;;;8.90
25514;BMP180;48128;54.242;10.280;2022-11-06T09:53:15;100730.00;;;9.00
25514;BMP180;48128;54.242;10.280;2022-11-06T09:55:44;100727.00;;;9.00
25514;BMP180;48128;54.242;10.280;2022-11-06T09:58:30;100748.00;;;9.00
25514;BMP180;48128;54.242;10.280;2022-11-06T10:00:57;100722.00;;;9.10
25514;BMP180;48128;54.242;10.280;2022-11-06T10:03:35;100729.00;;;9.20
25514;BMP180;48128;54.242;10.280;2022-11-06T10:06:05;100732.00;;;9.20
25514;BMP180;48128;54.242;10.280;2022-11-06T10:08:32;100735.00;;;9.30
25514;BMP180;48128;54.242;10.280;2022-11-06T10:11:23;100726.00;;;9.30
25514;BMP180;48128;54.242;10.280;2022-11-06T10:14:08;100729.00;;;9.30
25514;BMP180;48128;54.242;10.280;2022-11-06T10:22:30;100723.00;;;9.40
25514;BMP180;48128;54.242;10.280;2022-11-06T10:25:16;100723.00;;;9.50
25514;BMP180;48128;54.242;10.280;2022-11-06T10:28:02;100729.00;;;9.50
25514;BMP180;48128;54.242;10.280;2022-11-06T10:30:52;100724.00;;;9.50
25514;BMP180;48128;54.242;10.280;2022-11-06T10:36:05;100721.00;;;9.60
25514;BMP180;48128;54.242;10.280;2022-11-06T10:38:35;100722.00;;;9.70
25514;BMP180;48128;54.242;10.280;2022-11-06T10:41:03;100715.00;;;9.70
25514;BMP180;48128;54.242;10.280;2022-11-06T10:49:05;100717.00;;;9.90
25514;BMP180;48128;54.242;10.280;2022-11-06T10:54:27;100700.00;;;9.90
25514;BMP180;48128;54.242;10.280;2022-11-06T10:59:47;100687.00;;;10.00
25514;BMP180;48128;54.242;10.280;2022-11-06T11:04:49;100680.00;;;10.10
25514;BMP180;48128;54.242;10.280;2022-11-06T11:07:23;100687.00;;;10.20
25514;BMP180;48128;54.242;10.280;2022-11-06T11:09:51;100661.00;;;10.20
25514;BMP180;48128;54.242;10.280;2022-11-06T11:12:26;100673.00;;;10.20
25514;BMP180;48128;54.242;10.280;2022-11-06T11:15:26;100664.00;;;10.20
25514;BMP180;48128;54.242;10.280;2022-11-06T11:20:42;100669.00;;;10.40
25514;BMP180;48128;54.242;10.280;2022-11-06T11:23:13;100676.00;;;10.40
25514;BMP180;48128;54.242;10.280;2022-11-06T11:25:42;100682.00;;;10.50
25514;BMP180;48128;54.242;10.280;2022-11-06T11:28:31;100686.00;;;10.60
25514;BMP180;48128;54.242;10.280;2022-11-06T11:33:32;100671.00;;;10.70
25514;BMP180;48128;54.242;10.280;2022-11-06T11:35:59;100671.00;;;10.70
25514;BMP180;48128;54.242;10.280;2022-11-06T11:38:27;100673.00;;;10.80
25514;BMP180;48128;54.242;10.280;2022-11-06T11:43:40;100659.00;;;10.90
25514;BMP180;48128;54.242;10.280;2022-11-06T11:51:25;100630.00;;;11.20
25514;BMP180;48128;54.242;10.280;2022-11-06T11:54:06;100637.00;;;11.20
25514;BMP180;48128;54.242;10.280;2022-11-06T11:56:52;100651.00;;;11.20
25514;BMP180;48128;54.242;10.280;2022-11-06T12:02:29;100638.00;;;11.20
25514;BMP180;48128;54.242;10.280;2022-11-06T12:05:01;100638.00;;;11.30
25514;BMP180;48128;54.242;10.280;2022-11-06T12:07:30;100642.00;;;11.30
25514;BMP180;48128;54.242;10.280;2022-11-06T12:09:58;100631.00;;;11.30
25514;BMP180;48128;54.242;10.280;2022-11-06T12:12:29;100632.00;;;11.40
25514;BMP180;48128;54.242;10.280;2022-11-06T12:17:36;100639.00;;;11.50
25514;BMP180;48128;54.242;10.280;2022-11-06T12:20:13;100626.00;;;11.70
25514;BMP180;48128;54.242;10.280;2022-11-06T12:22:43;100644.00;;;11.80
25514;BMP180;48128;54.242;10.280;2022-11-06T12:25:15;100632.00;;;11.90
25514;BMP180;48128;54.242;10.280;2022-11-06T12:27:53;100640.00;;;11.90
25514;BMP180;48128;54.242;10.280;2022-11-06T12:30:21;100648.00;;;11.80
25514;BMP180;48128;54.242;10.280;2022-11-06T12:33:05;100641.00;;;11.80
25514;BMP180;48128;54.242;10.280;2022-11-06T12:35:41;100641.00;;;11.80
25514;BMP180;48128;54.242;10.280;2022-11-06T12:41:08;100616.00;;;11.80
25514;BMP180;48128;54.242;10.280;2022-11-06T12:43:40;100614.00;;;11.80
25514;BMP180;48128;54.242;10.280;2022-11-06T12:50:06;100605.00;;;11.80
25514;BMP180;48128;54.242;10.280;2022-11-06T12:58:13;100571.00;;;11.80
25514;BMP180;48128;54.242;10.280;2022-11-06T13:00:57;100559.00;;;11.90
25514;BMP180;48128;54.242;10.280;2022-11-06T13:09:44;100565.00;;;12.00
25514;BMP180;48128;54.242;10.280;2022-11-06T13:12:23;100572.00;;;12.00
25514;BMP180;48128;54.242;10.280;2022-11-06T13:17:35;100561.00;;;12.10
25514;BMP180;48128;54.242;10.280;2022-11-06T13:20:28;100567.00;;;12.20
25514;BMP180;48128;54.242;10.280;2022-11-06T13:23:03;100555.00;;;12.20
25514;BMP180;48128;54.242;10.280;2022-11-06T13:28:41;100570.00;;;12.30
25514;BMP180;48128;54.242;10.280;2022-11-06T13:31:12;100556.00;;;12.30
25514;BMP180;48128;54.242;10.280;2022-11-06T13:36:12;100554.00;;;12.40
25514;BMP180;48128;54.242;10.280;2022-11-06T13:38:46;100551.00;;;12.30
25514;BMP180;48128;54.242;10.280;2022-11-06T13:41:24;100553.00;;;12.30
25514;BMP180;48128;54.242;10.280;2022-11-06T13:44:01;100548.00;;;12.30
25514;BMP180;48128;54.242;10.280;2022-11-06T13:49:26;100521.00;;;12.20
25514;BMP180;48128;54.242;10.280;2022-11-06T14:00:40;100506.00;;;11.90
25514;BMP180;48128;54.242;10.280;2022-11-06T14:06:20;100492.00;;;11.70
25514;BMP180;48128;54.242;10.280;2022-11-06T14:08:53;100482.00;;;11.70
25514;BMP180;48128;54.242;10.280;2022-11-06T14:11:37;100474.00;;;11.60
25514;BMP180;48128;54.242;10.280;2022-11-06T14:14:22;100467.00;;;11.60
25514;BMP180;48128;54.242;10.280;2022-11-06T14:22:25;100476.00;;;11.50
25514;BMP180;48128;54.242;10.280;2022-11-06T14:24:52;100480.00;;;11.50
25514;BMP180;48128;54.242;10.280;2022-11-06T14:30:01;100485.00;;;11.40
25514;BMP180;48128;54.242;10.280;2022-11-06T14:32:34;100484.00;;;11.40
25514;BMP180;48128;54.242;10.280;2022-11-06T14:40:36;100462.00;;;11.30
25514;BMP180;48128;54.242;10.280;2022-11-06T14:43:32;100461.00;;;11.30
25514;BMP180;48128;54.242;10.280;2022-11-06T14:46:26;100465.00;;;11.20
25514;BMP180;48128;54.242;10.280;2022-11-06T14:48:55;100443.00;;;11.20
25514;BMP180;48128;54.242;10.280;2022-11-06T14:51:30;100444.00;;;11.10
25514;BMP180;48128;54.242;10.280;2022-11-06T14:53:58;100457.00;;;11.00
25514;BMP180;48128;54.242;10.280;2022-11-06T14:56:29;100438.00;;;11.00
25514;BMP180;48128;54.242;10.280;2022-11-06T14:59:06;100431.00;;;11.00
25514;BMP180;48128;54.242;10.280;2022-11-06T15:01:34;100418.00;;;10.90
25514;BMP180;48128;54.242;10.280;2022-11-06T15:04:21;100413.00;;;10.80
25514;BMP180;48128;54.242;10.280;2022-11-06T15:06:49;100413.00;;;10.80
25514;BMP180;48128;54.242;10.280;2022-11-06T15:11:57;100384.00;;;10.70
25514;BMP180;48128;54.242;10.280;2022-11-06T15:19:43;100406.00;;;10.50
25514;BMP180;48128;54.242;10.280;2022-11-06T15:31:03;100407.00;;;10.50
25514;BMP180;48128;54.242;10.280;2022-11-06T15:36:11;100409.00;;;10.50
25514;BMP180;48128;54.242;10.280;2022-11-06T15:38:40;100411.00;;;10.50
25514;BMP180;48128;54.242;10.280;2022-11-06T15:41:17;100410.00;;;10.50
25514;BMP180;48128;54.242;10.280;2022-11-06T15:43:46;100408.00;;;10.50
25514;BMP180;48128;54.242;10.280;2022-11-06T15:46:28;100396.00;;;10.50
25514;BMP180;48128;54.242;10.280;2022-11-06T15:49:17;100431.00;;;10.50
25514;BMP180;48128;54.242;10.280;2022-11-06T15:51:58;100419.00;;;10.50
25514;BMP180;48128;54.242;10.280;2022-11-06T15:59:35;100413.00;;;10.50
25514;BMP180;48128;54.242;10.280;2022-11-06T16:02:04;100404.00;;;10.50
25514;BMP180;48128;54.242;10.280;2022-11-06T16:04:38;100418.00;;;10.50
25514;BMP180;48128;54.242;10.280;2022-11-06T16:07:05;100411.00;;;10.50
25514;BMP180;48128;54.242;10.280;2022-11-06T16:09:32;100416.00;;;10.50
25514;BMP180;48128;54.242;10.280;2022-11-06T16:12:00;100415.00;;;10.50
25514;BMP180;48128;54.242;10.280;2022-11-06T16:14:27;100421.00;;;10.50
25514;BMP180;48128;54.242;10.280;2022-11-06T16:16:56;100421.00;;;10.40
25514;BMP180;48128;54.242;10.280;2022-11-06T16:19:32;100417.00;;;10.40
25514;BMP180;48128;54.242;10.280;2022-11-06T16:22:49;100405.00;;;10.40
25514;BMP180;48128;54.242;10.280;2022-11-06T16:24:56;100414.00;;;10.40
25514;BMP180;48128;54.242;10.280;2022-11-06T16:27:25;100422.00;;;10.40
25514;BMP180;48128;54.242;10.280;2022-11-06T16:30:00;100423.00;;;10.40
25514;BMP180;48128;54.242;10.280;2022-11-06T16:32:44;100416.00;;;10.40
25514;BMP180;48128;54.242;10.280;2022-11-06T16:35:32;100425.00;;;10.40
25514;BMP180;48128;54.242;10.280;2022-11-06T16:38:29;100412.00;;;10.30
25514;BMP180;48128;54.242;10.280;2022-11-06T16:41:08;100419.00;;;10.30
25514;BMP180;48128;54.242;10.280;2022-11-06T16:43:36;100422.00;;;10.30
25514;BMP180;48128;54.242;10.280;2022-11-06T16:46:05;100423.00;;;10.30